Ohshima Kazumaru — JD2908 — position and weather

sailwx.info

Track history (hours):
 
Tides and Currents Weather Stations Pressure Air Temp Water Temp Dewpoint Dewpoint Depression Visibility Wind Speed Wind Dir Waves Ship Positions

Ohshima Kazumaru

Last reported at 2014-Nov-22 11:08 UTC. Time now 2014-Nov-24 21:40 UTC.
Position N 35°13' E 139°46'.

Length 69 m; draft 3.2 m.

Type: Cargo ship. MMSI: 431000925.

Date/timePositionNaut miles runAvg speedWind from/ knotsBaromVisibWave heightAir tempDewpointWater temp
2014-Nov-22 11:08N 35°13' E 139°46'712.8
2014-Nov-22 10:33N 35°20' E 139°43'1212.1
2014-Nov-22 09:33N 35°30' E 139°49'11 1.0
2014-Nov-21 22:17N 35°41' E 139°51'5 6.6
2014-Nov-21 21:33N 35°37' E 139°53'8 1.5
2014-Nov-21 16:28N 35°30' E 139°52'1112.4
2014-Nov-21 15:33N 35°20' E 139°45'  
2014-Nov-17 16:31N 35°16' E 139°46'1111.2
2014-Nov-17 15:33N 35°27' E 139°45'5 0.7
2014-Nov-17 08:04N 35°32' E 139°47'0 0.0
2014-Nov-17 07:32N 35°32' E 139°47'0 0.0
2014-Nov-17 04:33N 35°32' E 139°47'2 0.1
2014-Nov-16 00:32N 35°31' E 139°49'0 0.0
2014-Nov-15 23:31N 35°31' E 139°49'3 0.5
2014-Nov-15 16:32N 35°28' E 139°48'1110.9
2014-Nov-15 15:33N 35°17' E 139°46'  
Track history (hours):
 
Tides and Currents Weather Stations Pressure Air Temp Water Temp Dewpoint Dewpoint Depression Visibility Wind Speed Wind Dir Waves Ship Positions

Ohshima Kazumaru

Last reported at 2014-Nov-22 11:08 UTC. Time now 2014-Nov-24 21:40 UTC.
Position N 35°13' E 139°46'.

Length 69 m; draft 3.2 m.

Type: Cargo ship. MMSI: 431000925.

Date/timePositionNaut miles runAvg speedWind from/ knotsBaromVisibWave heightAir tempDewpointWater temp
2014-Nov-22 11:08N 35°13' E 139°46'712.8
2014-Nov-22 10:33N 35°20' E 139°43'1212.1
2014-Nov-22 09:33N 35°30' E 139°49'11 1.0
2014-Nov-21 22:17N 35°41' E 139°51'5 6.6
2014-Nov-21 21:33N 35°37' E 139°53'8 1.5
2014-Nov-21 16:28N 35°30' E 139°52'1112.4
2014-Nov-21 15:33N 35°20' E 139°45'  
2014-Nov-17 16:31N 35°16' E 139°46'1111.2
2014-Nov-17 15:33N 35°27' E 139°45'5 0.7
2014-Nov-17 08:04N 35°32' E 139°47'0 0.0
2014-Nov-17 07:32N 35°32' E 139°47'0 0.0
2014-Nov-17 04:33N 35°32' E 139°47'2 0.1
2014-Nov-16 00:32N 35°31' E 139°49'0 0.0
2014-Nov-15 23:31N 35°31' E 139°49'3 0.5
2014-Nov-15 16:32N 35°28' E 139°48'1110.9
2014-Nov-15 15:33N 35°17' E 139°46'  

Dump ship's entire track history